Time;durP1;ratioP1;P1;durP2;ratioP2;P2;SDS_P1;SDS_P2;PMS_P1;PMS_P2;Temp;Humidity;BMP_temperature;BMP_pressure;BME280_temperature;BME280_humidity;BME280_pressure;Samples;Min_cycle;Max_cycle;Signal;HPM_P1;HPM_P2
2022/07/10 00:02:07;;;;;;;60.80;5.17;;;;;;;;;;5091390;28;20446;-65
2022/07/10 00:04:34;;;;;;;60.50;5.47;;;;;;;;;;5089185;28;21001;-65
2022/07/10 00:07:01;;;;;;;61.80;6.00;;;;;;;;;;5091165;28;20447;-65
2022/07/10 00:09:29;;;;;;;61.97;5.80;;;;;;;;;;5090689;28;20486;-65
2022/07/10 00:11:56;;;;;;;60.40;4.70;;;;;;;;;;5091297;28;20867;-65
2022/07/10 00:14:25;;;;;;;60.77;5.17;;;;;;;;;;5091047;28;20470;-64
2022/07/10 00:16:52;;;;;;;60.50;4.77;;;;;;;;;;5091112;28;20457;-65
2022/07/10 00:19:19;;;;;;;61.80;5.80;;;;;;;;;;5091206;28;20442;-66
2022/07/10 00:21:47;;;;;;;60.70;5.33;;;;;;;;;;5094655;28;20457;-65
2022/07/10 00:24:14;;;;;;;61.50;5.30;;;;;;;;;;5094811;28;20462;-63
2022/07/10 00:26:41;;;;;;;61.80;5.73;;;;;;;;;;5094870;28;20453;-63
2022/07/10 00:29:08;;;;;;;60.60;5.10;;;;;;;;;;5094456;28;20486;-63
2022/07/10 00:31:37;;;;;;;61.40;5.20;;;;;;;;;;5094675;28;20449;-64
2022/07/10 00:34:04;;;;;;;61.50;5.10;;;;;;;;;;5094148;28;20478;-63
2022/07/10 00:36:31;;;;;;;61.47;5.63;;;;;;;;;;5091979;28;20454;-63
2022/07/10 00:38:58;;;;;;;60.27;4.87;;;;;;;;;;5093819;28;20938;-63
2022/07/10 00:41:25;;;;;;;62.10;5.20;;;;;;;;;;5094396;28;20450;-63
2022/07/10 00:43:53;;;;;;;61.20;5.37;;;;;;;;;;5094324;28;20470;-63
2022/07/10 00:46:21;;;;;;;60.87;5.10;;;;;;;;;;5094289;28;20444;-63
2022/07/10 00:48:49;;;;;;;61.17;5.40;;;;;;;;;;5093886;28;20478;-63
2022/07/10 00:51:17;;;;;;;60.30;5.17;;;;;;;;;;5094170;28;20453;-63
2022/07/10 00:53:46;;;;;;;59.77;5.00;;;;;;;;;;5094221;28;20466;-63
2022/07/10 00:56:13;;;;;;;62.20;5.10;;;;;;;;;;5094116;28;20462;-63
2022/07/10 00:58:41;;;;;;;60.23;5.20;;;;;;;;;;5093303;28;20452;-64
2022/07/10 01:01:08;;;;;;;61.17;4.87;;;;;;;;;;5094103;28;20461;-65
2022/07/10 01:03:35;;;;;;;62.03;5.90;;;;;;;;;;5093605;28;20462;-64
2022/07/10 01:06:04;;;;;;;60.87;4.83;;;;;;;;;;5093946;28;20468;-64
2022/07/10 01:08:31;;;;;;;61.00;5.10;;;;;;;;;;5091909;28;20577;-64
2022/07/10 01:10:59;;;;;;;61.67;5.30;;;;;;;;;;5093981;28;20448;-64
2022/07/10 01:13:26;;;;;;;61.63;6.20;;;;;;;;;;5093595;28;20467;-64
2022/07/10 01:15:53;;;;;;;60.27;4.80;;;;;;;;;;5094180;28;20453;-64
2022/07/10 01:18:20;;;;;;;60.80;5.10;;;;;;;;;;5093110;28;20457;-64
2022/07/10 01:20:47;;;;;;;60.73;5.20;;;;;;;;;;5093835;28;20807;-64
2022/07/10 01:23:16;;;;;;;61.57;5.40;;;;;;;;;;5093641;28;20469;-65
2022/07/10 01:25:43;;;;;;;61.43;4.77;;;;;;;;;;5093726;28;20442;-63
2022/07/10 01:28:10;;;;;;;61.83;5.20;;;;;;;;;;5093158;28;20823;-64
2022/07/10 01:30:37;;;;;;;61.77;5.50;;;;;;;;;;5092617;28;20462;-64
2022/07/10 01:33:04;;;;;;;60.83;4.60;;;;;;;;;;5093164;28;20549;-63
2022/07/10 01:35:31;;;;;;;60.10;4.77;;;;;;;;;;5093372;28;20448;-64
2022/07/10 01:37:59;;;;;;;61.00;5.47;;;;;;;;;;5092841;28;20441;-63
2022/07/10 01:40:27;;;;;;;62.17;5.90;;;;;;;;;;5090944;28;20447;-63
2022/07/10 01:42:54;;;;;;;61.77;5.10;;;;;;;;;;5092966;28;20448;-64
2022/07/10 01:45:22;;;;;;;61.00;5.57;;;;;;;;;;5093406;28;20444;-64
2022/07/10 01:47:49;;;;;;;61.70;5.80;;;;;;;;;;5072053;28;20448;-64
2022/07/10 01:50:16;;;;;;;61.03;5.03;;;;;;;;;;5073022;28;20454;-63
2022/07/10 01:52:43;;;;;;;61.10;4.77;;;;;;;;;;5072814;28;20520;-64
2022/07/10 01:55:10;;;;;;;60.70;4.87;;;;;;;;;;5072758;28;20471;-64
2022/07/10 01:57:39;;;;;;;62.47;5.07;;;;;;;;;;5072377;28;20810;-64
2022/07/10 02:00:07;;;;;;;61.30;5.90;;;;;;;;;;5072203;28;20536;-64
2022/07/10 02:02:34;;;;;;;61.90;6.57;;;;;;;;;;5072365;28;20467;-64
2022/07/10 02:05:01;;;;;;;60.83;5.60;;;;;;;;;;5072639;28;20464;-64
2022/07/10 02:07:28;;;;;;;61.47;5.97;;;;;;;;;;5072218;28;20456;-64
2022/07/10 02:09:55;;;;;;;61.47;5.87;;;;;;;;;;5072347;28;20901;-64
2022/07/10 02:12:22;;;;;;;61.40;5.90;;;;;;;;;;5078107;28;20530;-63
2022/07/10 02:14:51;;;;;;;62.27;6.70;;;;;;;;;;5092647;28;20464;-64
2022/07/10 02:17:18;;;;;;;64.03;6.27;;;;;;;;;;5092479;28;20541;-63
2022/07/10 02:19:45;;;;;;;61.20;5.53;;;;;;;;;;5092784;28;20448;-63
2022/07/10 02:22:12;;;;;;;61.43;4.80;;;;;;;;;;5092214;28;20831;-64
2022/07/10 02:24:39;;;;;;;61.67;5.50;;;;;;;;;;5092441;28;20464;-64
2022/07/10 02:27:06;;;;;;;62.90;6.13;;;;;;;;;;5092268;28;20970;-64
2022/07/10 02:29:34;;;;;;;64.10;6.03;;;;;;;;;;5091994;28;20519;-64
2022/07/10 02:32:03;;;;;;;61.47;5.30;;;;;;;;;;5092570;28;20827;-63
2022/07/10 02:34:30;;;;;;;60.77;5.30;;;;;;;;;;5092020;28;20517;-64
2022/07/10 02:36:57;;;;;;;60.80;5.30;;;;;;;;;;5092258;28;20449;-64
2022/07/10 02:39:24;;;;;;;61.10;5.60;;;;;;;;;;5092137;28;20445;-64
2022/07/10 02:41:51;;;;;;;62.00;5.70;;;;;;;;;;5091666;28;20447;-63
2022/07/10 02:44:18;;;;;;;61.47;5.70;;;;;;;;;;5091599;28;20469;-62
2022/07/10 02:46:46;;;;;;;62.17;6.60;;;;;;;;;;5091277;28;20536;-64
2022/07/10 02:49:14;;;;;;;61.77;5.77;;;;;;;;;;5091916;28;20859;-63
2022/07/10 02:51:41;;;;;;;60.73;5.00;;;;;;;;;;5092158;28;20473;-63
2022/07/10 02:54:08;;;;;;;62.50;5.93;;;;;;;;;;5091882;28;20552;-63
2022/07/10 02:56:36;;;;;;;61.53;5.20;;;;;;;;;;5091779;28;20972;-63
2022/07/10 02:59:04;;;;;;;64.90;5.93;;;;;;;;;;5091376;28;20457;-63
2022/07/10 03:01:31;;;;;;;62.80;5.90;;;;;;;;;;5091687;28;20452;-64
2022/07/10 03:03:58;;;;;;;61.60;6.20;;;;;;;;;;5091635;28;20476;-63
2022/07/10 03:06:26;;;;;;;61.60;5.97;;;;;;;;;;5091916;28;20452;-64
2022/07/10 03:08:53;;;;;;;60.67;5.20;;;;;;;;;;5091398;28;20814;-64
2022/07/10 03:11:20;;;;;;;62.33;6.33;;;;;;;;;;5091592;28;20456;-64
2022/07/10 03:13:48;;;;;;;63.10;5.83;;;;;;;;;;5091589;28;20471;-64
2022/07/10 03:16:15;;;;;;;62.80;6.20;;;;;;;;;;5091302;28;20500;-64
2022/07/10 03:18:42;;;;;;;62.00;5.37;;;;;;;;;;5090663;28;20842;-64
2022/07/10 03:21:09;;;;;;;63.50;6.13;;;;;;;;;;5091827;28;20457;-64
2022/07/10 03:23:39;;;;;;;62.27;5.77;;;;;;;;;;5091447;28;20649;-63
2022/07/10 03:26:07;;;;;;;61.30;5.43;;;;;;;;;;5091442;28;20448;-64
2022/07/10 03:28:35;;;;;;;61.27;5.70;;;;;;;;;;5091661;28;20483;-64
2022/07/10 03:31:03;;;;;;;60.50;5.10;;;;;;;;;;5091737;28;20444;-64
2022/07/10 03:33:30;;;;;;;62.00;6.47;;;;;;;;;;5091406;28;20483;-64
2022/07/10 03:35:57;;;;;;;63.80;7.10;;;;;;;;;;5091787;28;20539;-64
2022/07/10 03:38:24;;;;;;;63.10;6.40;;;;;;;;;;5091850;28;20469;-65
2022/07/10 03:40:52;;;;;;;61.70;5.77;;;;;;;;;;5091558;28;20446;-64
2022/07/10 03:43:19;;;;;;;63.40;5.60;;;;;;;;;;5091392;28;20471;-65
2022/07/10 03:45:47;;;;;;;60.93;5.50;;;;;;;;;;5091677;28;20453;-64
2022/07/10 03:48:14;;;;;;;61.30;5.77;;;;;;;;;;5091413;28;20451;-64
2022/07/10 03:50:41;;;;;;;61.27;5.80;;;;;;;;;;5091535;28;20486;-65
2022/07/10 03:53:08;;;;;;;62.27;6.40;;;;;;;;;;5091352;28;20457;-64
2022/07/10 03:55:35;;;;;;;62.30;6.30;;;;;;;;;;5094507;28;20443;-64
2022/07/10 03:58:03;;;;;;;62.30;6.00;;;;;;;;;;5095171;28;20965;-64
2022/07/10 04:00:32;;;;;;;62.57;5.97;;;;;;;;;;5095575;28;20496;-65
2022/07/10 04:02:59;;;;;;;62.53;5.67;;;;;;;;;;5095378;28;20447;-65
2022/07/10 04:05:26;;;;;;;63.67;6.33;;;;;;;;;;5095287;28;20449;-64
2022/07/10 04:07:54;;;;;;;60.67;5.60;;;;;;;;;;5095185;28;20447;-64
2022/07/10 04:10:21;;;;;;;62.33;5.93;;;;;;;;;;5095346;28;20581;-64
2022/07/10 04:12:48;;;;;;;62.20;5.93;;;;;;;;;;5095245;28;20448;-64
2022/07/10 04:15:17;;;;;;;61.47;5.80;;;;;;;;;;5095138;28;20464;-64
2022/07/10 04:17:44;;;;;;;61.57;5.63;;;;;;;;;;5094868;28;20840;-65
2022/07/10 04:20:12;;;;;;;61.40;5.60;;;;;;;;;;5094965;28;20542;-63
2022/07/10 04:22:39;;;;;;;63.80;6.53;;;;;;;;;;5095173;28;20451;-64
2022/07/10 04:25:06;;;;;;;62.10;5.90;;;;;;;;;;5095061;28;20938;-64
2022/07/10 04:27:34;;;;;;;60.77;5.10;;;;;;;;;;5094660;28;20453;-64
2022/07/10 04:30:01;;;;;;;61.37;5.50;;;;;;;;;;5094926;28;20484;-64
2022/07/10 04:32:29;;;;;;;61.43;5.77;;;;;;;;;;5094722;28;20436;-65
2022/07/10 04:34:56;;;;;;;61.57;5.70;;;;;;;;;;5094585;28;20486;-64
2022/07/10 04:37:24;;;;;;;62.80;6.23;;;;;;;;;;5094665;28;20539;-64
2022/07/10 04:39:51;;;;;;;61.40;6.40;;;;;;;;;;5094783;28;20441;-64
2022/07/10 04:42:18;;;;;;;60.50;5.50;;;;;;;;;;5094738;28;20891;-65
2022/07/10 04:44:45;;;;;;;62.80;6.30;;;;;;;;;;5094546;28;20464;-65
2022/07/10 04:47:12;;;;;;;62.10;5.37;;;;;;;;;;5094269;28;20482;-65
2022/07/10 04:49:41;;;;;;;60.67;5.30;;;;;;;;;;5094414;28;20518;-64
2022/07/10 04:52:08;;;;;;;63.70;5.47;;;;;;;;;;5094459;28;20942;-65
2022/07/10 04:54:35;;;;;;;61.50;5.80;;;;;;;;;;5094496;28;20882;-65
2022/07/10 04:57:02;;;;;;;61.10;5.37;;;;;;;;;;5094496;28;20529;-64
2022/07/10 04:59:29;;;;;;;62.00;5.57;;;;;;;;;;5094053;28;20812;-64
2022/07/10 05:01:57;;;;;;;61.37;5.40;;;;;;;;;;5094367;28;20489;-64
2022/07/10 05:04:24;;;;;;;60.60;5.23;;;;;;;;;;5094100;28;20545;-65
2022/07/10 05:06:52;;;;;;;60.97;5.37;;;;;;;;;;5094193;28;20447;-64
2022/07/10 05:09:20;;;;;;;60.70;4.80;;;;;;;;;;5093942;28;20443;-64
2022/07/10 05:11:47;;;;;;;60.60;5.40;;;;;;;;;;5094264;28;20540;-65
2022/07/10 05:14:16;;;;;;;60.87;5.10;;;;;;;;;;5093885;28;20524;-65
2022/07/10 05:16:43;;;;;;;61.17;5.07;;;;;;;;;;5094265;28;20453;-64
2022/07/10 05:19:10;;;;;;;61.50;5.53;;;;;;;;;;5093722;28;20487;-64
2022/07/10 05:21:37;;;;;;;60.90;5.60;;;;;;;;;;5093925;28;20451;-65
2022/07/10 05:24:06;;;;;;;61.07;5.40;;;;;;;;;;5093734;28;20469;-64
2022/07/10 05:26:33;;;;;;;62.77;6.00;;;;;;;;;;5093836;28;20442;-65
2022/07/10 05:29:00;;;;;;;61.00;5.47;;;;;;;;;;5093951;28;20445;-64
2022/07/10 05:31:27;;;;;;;61.00;4.87;;;;;;;;;;5093992;28;20446;-65
2022/07/10 05:33:54;;;;;;;63.70;6.60;;;;;;;;;;5093324;28;21028;-63
2022/07/10 05:36:21;;;;;;;60.60;5.10;;;;;;;;;;5093687;28;20450;-64
2022/07/10 05:38:48;;;;;;;61.07;5.43;;;;;;;;;;5093715;28;20458;-65
2022/07/10 05:41:17;;;;;;;61.97;5.57;;;;;;;;;;5093402;28;20951;-65
2022/07/10 05:43:44;;;;;;;62.53;4.90;;;;;;;;;;5093252;28;20476;-64
2022/07/10 05:46:11;;;;;;;60.70;5.20;;;;;;;;;;5093603;28;20451;-64
2022/07/10 05:48:39;;;;;;;60.23;4.50;;;;;;;;;;5093017;28;20953;-64
2022/07/10 05:51:06;;;;;;;70.93;4.50;;;;;;;;;;5093315;28;20449;-64
2022/07/10 05:53:33;;;;;;;61.20;4.73;;;;;;;;;;5093018;28;21002;-64
2022/07/10 05:56:02;;;;;;;59.70;4.27;;;;;;;;;;5093198;28;20447;-64
2022/07/10 05:58:30;;;;;;;59.27;3.80;;;;;;;;;;5092866;28;20457;-64
2022/07/10 06:00:57;;;;;;;59.97;4.40;;;;;;;;;;5093061;28;20579;-65
2022/07/10 06:03:25;;;;;;;61.17;4.40;;;;;;;;;;5093075;28;20469;-63
2022/07/10 06:05:52;;;;;;;59.57;4.23;;;;;;;;;;5093028;28;20925;-64
2022/07/10 06:08:20;;;;;;;61.60;4.30;;;;;;;;;;5092570;28;20546;-64
2022/07/10 06:10:47;;;;;;;60.17;4.57;;;;;;;;;;5093127;28;20533;-64
2022/07/10 06:13:14;;;;;;;59.87;3.73;;;;;;;;;;5093018;28;20565;-64
2022/07/10 06:15:42;;;;;;;60.53;3.80;;;;;;;;;;5092996;28;20835;-65
2022/07/10 06:18:09;;;;;;;59.70;4.10;;;;;;;;;;5091994;28;20452;-64
2022/07/10 06:20:37;;;;;;;60.67;3.80;;;;;;;;;;5092734;28;20487;-64
2022/07/10 06:23:04;;;;;;;61.57;3.97;;;;;;;;;;5092478;28;20471;-64
2022/07/10 06:25:31;;;;;;;59.20;3.70;;;;;;;;;;5092892;28;20445;-65
2022/07/10 06:27:58;;;;;;;59.00;3.47;;;;;;;;;;5092308;28;20950;-64
2022/07/10 06:30:25;;;;;;;62.20;3.80;;;;;;;;;;5092695;28;20480;-64
2022/07/10 06:32:54;;;;;;;60.87;3.87;;;;;;;;;;5092362;28;20455;-64
2022/07/10 06:35:21;;;;;;;59.70;3.77;;;;;;;;;;5092292;28;20482;-64
2022/07/10 06:37:48;;;;;;;60.20;3.80;;;;;;;;;;5091867;28;20453;-64
2022/07/10 06:40:15;;;;;;;60.70;3.67;;;;;;;;;;5092683;28;20960;-65
2022/07/10 06:42:42;;;;;;;58.80;3.50;;;;;;;;;;5092776;28;20446;-65
2022/07/10 06:45:10;;;;;;;60.53;3.80;;;;;;;;;;5092211;28;20462;-64
2022/07/10 06:50:23;;;;;;;59.00;3.60;;;;;;;;;;5092265;28;20422;-64
2022/07/10 06:52:51;;;;;;;59.10;3.60;;;;;;;;;;5092232;28;20446;-64
2022/07/10 06:55:19;;;;;;;62.80;3.30;;;;;;;;;;5092300;28;20442;-64
2022/07/10 06:57:46;;;;;;;59.00;3.87;;;;;;;;;;5091816;28;20443;-64
2022/07/10 07:00:13;;;;;;;59.47;3.77;;;;;;;;;;5091977;28;20482;-64
2022/07/10 07:02:41;;;;;;;59.00;3.83;;;;;;;;;;5091819;28;20861;-65
2022/07/10 07:05:08;;;;;;;62.23;3.50;;;;;;;;;;5092148;28;20472;-65
2022/07/10 07:07:37;;;;;;;62.37;3.60;;;;;;;;;;5091903;28;20450;-65
2022/07/10 07:10:05;;;;;;;60.77;3.70;;;;;;;;;;5091901;28;20451;-64
2022/07/10 07:12:32;;;;;;;59.10;3.50;;;;;;;;;;5091892;28;20533;-65
2022/07/10 07:14:59;;;;;;;60.50;3.03;;;;;;;;;;5091435;28;20595;-64
2022/07/10 07:17:33;;;;;;;60.17;3.20;;;;;;;;;;5091490;28;20910;-64
2022/07/10 07:25:32;;;;;;;58.87;3.43;;;;;;;;;;5091773;28;20468;-64
2022/07/10 07:27:59;;;;;;;62.10;3.17;;;;;;;;;;5091723;28;20472;-64
2022/07/10 07:30:26;;;;;;;59.57;3.27;;;;;;;;;;5094581;28;20975;-65
2022/07/10 07:32:53;;;;;;;59.60;3.47;;;;;;;;;;5095721;28;20446;-65
2022/07/10 07:35:20;;;;;;;65.50;3.40;;;;;;;;;;5095687;28;20458;-65
2022/07/10 07:37:50;;;;;;;59.87;3.00;;;;;;;;;;5095488;28;20448;-65
2022/07/10 07:40:19;;;;;;;61.13;3.00;;;;;;;;;;5095948;28;20482;-64
2022/07/10 07:42:47;;;;;;;60.87;3.80;;;;;;;;;;5095668;28;20950;-64
2022/07/10 07:45:14;;;;;;;58.50;2.80;;;;;;;;;;5095814;28;20469;-64
2022/07/10 07:47:45;;;;;;;59.63;2.90;;;;;;;;;;5095512;28;20442;-65
2022/07/10 07:50:12;;;;;;;59.23;2.80;;;;;;;;;;5095632;28;21000;-65
2022/07/10 07:52:40;;;;;;;61.33;3.37;;;;;;;;;;5095432;28;20442;-64
2022/07/10 07:55:09;;;;;;;66.37;3.10;;;;;;;;;;5095519;28;20839;-65
2022/07/10 07:57:36;;;;;;;60.57;3.20;;;;;;;;;;5095200;28;20986;-64
2022/07/10 08:00:04;;;;;;;60.17;3.17;;;;;;;;;;5095533;28;20786;-64
2022/07/10 08:02:31;;;;;;;58.20;2.90;;;;;;;;;;5095311;28;20452;-65
2022/07/10 08:04:58;;;;;;;60.80;3.27;;;;;;;;;;5095190;28;20553;-64
2022/07/10 08:07:34;;;;;;;58.37;2.73;;;;;;;;;;5095446;28;20451;-67
2022/07/10 08:10:01;;;;;;;58.40;2.87;;;;;;;;;;5095531;28;20457;-65
2022/07/10 08:12:29;;;;;;;60.47;3.43;;;;;;;;;;5095290;28;20930;-64
2022/07/10 08:14:57;;;;;;;58.40;2.60;;;;;;;;;;5095276;28;20877;-64
2022/07/10 08:17:25;;;;;;;58.47;2.90;;;;;;;;;;5094941;28;20450;-65
2022/07/10 08:19:52;;;;;;;61.57;2.87;;;;;;;;;;5095262;28;20450;-65
2022/07/10 08:22:19;;;;;;;58.50;3.13;;;;;;;;;;5095165;28;20450;-65
2022/07/10 08:24:46;;;;;;;58.87;2.83;;;;;;;;;;5095038;28;20470;-65
2022/07/10 08:27:13;;;;;;;59.00;2.90;;;;;;;;;;5094793;28;20450;-65
2022/07/10 08:29:41;;;;;;;58.60;3.03;;;;;;;;;;5094857;28;20533;-64
2022/07/10 08:32:09;;;;;;;60.23;3.17;;;;;;;;;;5094771;28;20533;-64
2022/07/10 08:34:36;;;;;;;59.70;2.77;;;;;;;;;;5094554;28;21014;-66
2022/07/10 08:37:03;;;;;;;59.37;3.00;;;;;;;;;;5095013;28;20481;-65
2022/07/10 08:39:31;;;;;;;63.50;3.00;;;;;;;;;;5094646;28;20445;-65
2022/07/10 08:41:58;;;;;;;58.20;2.80;;;;;;;;;;5094273;28;20482;-65
2022/07/10 08:44:25;;;;;;;58.37;3.10;;;;;;;;;;5094535;28;20476;-66
2022/07/10 08:46:54;;;;;;;60.40;3.00;;;;;;;;;;5094544;28;20556;-65
2022/07/10 08:49:21;;;;;;;59.43;3.10;;;;;;;;;;5094455;28;20816;-65
2022/07/10 08:51:49;;;;;;;59.27;3.17;;;;;;;;;;5094512;28;20438;-65
2022/07/10 08:54:17;;;;;;;58.67;2.90;;;;;;;;;;5094461;28;20458;-65
2022/07/10 08:56:44;;;;;;;66.37;2.53;;;;;;;;;;5094407;28;20447;-65
2022/07/10 08:59:12;;;;;;;59.30;2.80;;;;;;;;;;5094057;28;20826;-65
2022/07/10 09:01:39;;;;;;;59.97;2.80;;;;;;;;;;5094536;28;20488;-64
2022/07/10 09:04:08;;;;;;;58.60;2.50;;;;;;;;;;5094027;28;20540;-65
2022/07/10 09:06:35;;;;;;;58.47;2.50;;;;;;;;;;5094214;28;20542;-65
2022/07/10 09:09:04;;;;;;;58.77;3.10;;;;;;;;;;5094046;28;20452;-65
2022/07/10 09:11:31;;;;;;;58.27;2.60;;;;;;;;;;5094521;28;20446;-65
2022/07/10 09:13:59;;;;;;;58.70;2.70;;;;;;;;;;5093805;28;20979;-65
2022/07/10 09:16:27;;;;;;;58.47;2.30;;;;;;;;;;5094200;28;20442;-65
2022/07/10 09:18:54;;;;;;;58.57;2.63;;;;;;;;;;5093860;28;20863;-65
2022/07/10 09:21:24;;;;;;;58.90;2.47;;;;;;;;;;5093387;28;20998;-65
2022/07/10 09:23:52;;;;;;;58.10;2.40;;;;;;;;;;5093748;28;20473;-66
2022/07/10 09:26:19;;;;;;;58.40;2.67;;;;;;;;;;5093673;28;20965;-65
2022/07/10 09:28:46;;;;;;;59.47;2.93;;;;;;;;;;5093594;28;20862;-64
2022/07/10 09:31:13;;;;;;;60.60;2.50;;;;;;;;;;5093746;28;20439;-65
2022/07/10 09:33:41;;;;;;;58.27;2.60;;;;;;;;;;5092761;28;20478;-62
2022/07/10 09:36:10;;;;;;;59.60;2.70;;;;;;;;;;5093224;28;20457;-63
2022/07/10 09:38:53;;;;;;;59.17;2.53;;;;;;;;;;5092570;28;20507;-63
2022/07/10 09:41:22;;;;;;;59.50;2.60;;;;;;;;;;5091738;28;20478;-65
2022/07/10 09:43:50;;;;;;;57.87;2.40;;;;;;;;;;5093299;28;20474;-65
2022/07/10 09:46:18;;;;;;;58.30;2.63;;;;;;;;;;5093592;28;20822;-65
2022/07/10 09:48:45;;;;;;;58.77;2.47;;;;;;;;;;5093171;28;20533;-65
2022/07/10 09:51:13;;;;;;;59.43;2.90;;;;;;;;;;5093155;28;20469;-64
2022/07/10 09:53:41;;;;;;;58.03;2.47;;;;;;;;;;5092496;28;20811;-65
2022/07/10 09:56:09;;;;;;;62.83;2.73;;;;;;;;;;5093271;28;20458;-65
2022/07/10 09:58:38;;;;;;;60.33;2.80;;;;;;;;;;5093045;28;20448;-66
2022/07/10 10:01:05;;;;;;;58.00;2.60;;;;;;;;;;5093144;28;20479;-63
2022/07/10 10:03:38;;;;;;;58.07;2.50;;;;;;;;;;5092960;28;20463;-63
2022/07/10 10:06:12;;;;;;;58.27;2.70;;;;;;;;;;5093127;28;20453;-63
2022/07/10 10:08:44;;;;;;;59.83;2.70;;;;;;;;;;5093051;28;20511;-63
2022/07/10 10:11:15;;;;;;;58.67;2.60;;;;;;;;;;5093343;28;20443;-66
2022/07/10 10:13:44;;;;;;;59.00;2.80;;;;;;;;;;5092826;28;20527;-65
2022/07/10 10:16:12;;;;;;;58.97;2.53;;;;;;;;;;5092831;28;20533;-65
2022/07/10 10:20:36;;;;;;;58.07;2.83;;;;;;;;;;5092587;28;20451;-65
2022/07/10 10:21:27;;;;;;;58.60;2.77;;;;;;;;;;5092644;28;20484;-63
2022/07/10 10:23:55;;;;;;;58.20;2.43;;;;;;;;;;5092790;28;20473;-63
2022/07/10 10:26:22;;;;;;;58.13;2.40;;;;;;;;;;5092689;28;20464;-65
2022/07/10 10:28:51;;;;;;;58.83;2.50;;;;;;;;;;5092331;28;20458;-63
2022/07/10 10:31:19;;;;;;;58.07;2.27;;;;;;;;;;5092771;28;20444;-63
2022/07/10 10:33:48;;;;;;;59.10;2.60;;;;;;;;;;5092429;28;20518;-64
2022/07/10 10:36:17;;;;;;;58.07;2.20;;;;;;;;;;5092596;28;20442;-65
2022/07/10 10:39:03;;;;;;;60.67;2.57;;;;;;;;;;5092319;28;20458;-64
2022/07/10 10:41:37;;;;;;;58.50;2.20;;;;;;;;;;5092400;28;20571;-63
2022/07/10 10:44:37;;;;;;;57.70;2.30;;;;;;;;;;5092311;28;20990;-64
2022/07/10 10:47:07;;;;;;;57.90;2.00;;;;;;;;;;5029866;28;20524;-64
2022/07/10 10:49:50;;;;;;;59.50;2.70;;;;;;;;;;5029030;28;20461;-64
2022/07/10 10:52:18;;;;;;;59.10;2.40;;;;;;;;;;5028901;28;20460;-64
2022/07/10 10:55:20;;;;;;;59.13;2.87;;;;;;;;;;5028907;28;20524;-64
2022/07/10 10:57:51;;;;;;;57.97;2.23;;;;;;;;;;5028627;28;20460;-64
2022/07/10 11:00:40;;;;;;;58.10;1.93;;;;;;;;;;5029370;28;20491;-63
2022/07/10 11:03:16;;;;;;;59.27;2.40;;;;;;;;;;5029240;28;20889;-65
2022/07/10 11:05:44;;;;;;;58.00;2.13;;;;;;;;;;5029503;28;20453;-64
2022/07/10 11:08:11;;;;;;;57.90;2.40;;;;;;;;;;5028699;28;20445;-65
2022/07/10 11:10:39;;;;;;;59.70;2.40;;;;;;;;;;5029348;28;20535;-64
2022/07/10 11:13:07;;;;;;;58.00;2.10;;;;;;;;;;5029435;28;20452;-63
2022/07/10 11:15:36;;;;;;;57.97;2.50;;;;;;;;;;5029556;28;20540;-64
2022/07/10 11:18:07;;;;;;;58.20;2.30;;;;;;;;;;5061433;28;20503;-64
2022/07/10 11:20:37;;;;;;;58.20;2.30;;;;;;;;;;5091842;28;20442;-64
2022/07/10 11:23:19;;;;;;;58.53;2.40;;;;;;;;;;5091617;28;20439;-64
2022/07/10 11:26:00;;;;;;;59.33;2.60;;;;;;;;;;5089676;28;20541;-65
2022/07/10 11:28:29;;;;;;;64.60;3.27;;;;;;;;;;5091689;28;20492;-64
2022/07/10 11:30:57;;;;;;;63.33;2.67;;;;;;;;;;5091821;28;20442;-64
2022/07/10 11:33:24;;;;;;;59.47;2.50;;;;;;;;;;5091437;28;20849;-64
2022/07/10 11:35:53;;;;;;;57.80;2.13;;;;;;;;;;5092065;28;20450;-64
2022/07/10 11:38:21;;;;;;;58.00;2.20;;;;;;;;;;5091686;28;20521;-65
2022/07/10 11:40:48;;;;;;;59.00;2.40;;;;;;;;;;5091637;28;20446;-64
2022/07/10 11:43:17;;;;;;;57.80;2.27;;;;;;;;;;5091604;28;20561;-65
2022/07/10 11:45:44;;;;;;;58.00;1.90;;;;;;;;;;5091436;28;20454;-65
2022/07/10 11:48:18;;;;;;;57.30;2.20;;;;;;;;;;5091528;28;20469;-63
2022/07/10 11:50:45;;;;;;;58.80;2.47;;;;;;;;;;5091881;28;20533;-65
2022/07/10 11:53:14;;;;;;;57.97;2.23;;;;;;;;;;5091535;28;20511;-65
2022/07/10 11:55:41;;;;;;;58.20;2.60;;;;;;;;;;5091667;28;20826;-65
2022/07/10 11:58:15;;;;;;;57.70;2.07;;;;;;;;;;5091260;28;20450;-65
2022/07/10 12:00:43;;;;;;;59.37;2.43;;;;;;;;;;5091441;28;20456;-64
2022/07/10 12:03:20;;;;;;;58.10;2.50;;;;;;;;;;5091463;28;20478;-65
2022/07/10 12:05:48;;;;;;;58.20;2.50;;;;;;;;;;5091599;28;20454;-65
2022/07/10 12:08:17;;;;;;;57.57;2.30;;;;;;;;;;5091243;28;20446;-64
2022/07/10 12:10:45;;;;;;;58.07;2.30;;;;;;;;;;5091476;28;20446;-63
2022/07/10 12:13:13;;;;;;;59.33;2.70;;;;;;;;;;5091199;28;20705;-64
2022/07/10 12:15:41;;;;;;;58.17;2.40;;;;;;;;;;5092908;28;20451;-64
2022/07/10 12:18:09;;;;;;;59.00;2.00;;;;;;;;;;5095087;28;20458;-65
2022/07/10 12:20:37;;;;;;;58.23;2.07;;;;;;;;;;5095146;28;20452;-65
2022/07/10 12:23:05;;;;;;;57.93;2.30;;;;;;;;;;5094513;28;20489;-65
2022/07/10 12:25:33;;;;;;;59.80;2.10;;;;;;;;;;5094937;28;20446;-65
2022/07/10 12:28:00;;;;;;;57.67;2.10;;;;;;;;;;5094934;28;20540;-65
2022/07/10 12:30:38;;;;;;;58.33;2.10;;;;;;;;;;5094925;28;20453;-65
2022/07/10 12:33:15;;;;;;;60.73;2.60;;;;;;;;;;5094676;28;20817;-64
2022/07/10 12:35:49;;;;;;;58.10;2.23;;;;;;;;;;5094837;28;20460;-65
2022/07/10 12:38:18;;;;;;;57.20;1.80;;;;;;;;;;5094800;28;20452;-65
2022/07/10 12:40:47;;;;;;;57.30;2.10;;;;;;;;;;5094908;28;20445;-65
2022/07/10 12:43:14;;;;;;;59.10;2.20;;;;;;;;;;5094404;28;20581;-65
2022/07/10 12:45:41;;;;;;;57.40;2.00;;;;;;;;;;5094753;28;20456;-65
2022/07/10 12:48:08;;;;;;;57.30;2.10;;;;;;;;;;5094340;28;20442;-65
2022/07/10 12:50:35;;;;;;;58.37;2.10;;;;;;;;;;5094430;28;20442;-65
2022/07/10 12:53:09;;;;;;;57.23;2.07;;;;;;;;;;5094599;28;20842;-65
2022/07/10 12:55:37;;;;;;;58.97;2.20;;;;;;;;;;5094479;28;20943;-65
2022/07/10 12:58:08;;;;;;;57.07;1.90;;;;;;;;;;5094190;28;20442;-65
2022/07/10 13:00:36;;;;;;;57.00;1.80;;;;;;;;;;5091039;28;20834;-65
2022/07/10 13:03:04;;;;;;;57.37;2.10;;;;;;;;;;5092867;28;20568;-65
2022/07/10 13:05:33;;;;;;;57.70;2.30;;;;;;;;;;5093138;28;20442;-66
2022/07/10 13:08:08;;;;;;;57.37;1.90;;;;;;;;;;5093418;28;20598;-66
2022/07/10 13:10:36;;;;;;;57.47;1.80;;;;;;;;;;5094179;28;20523;-66
2022/07/10 13:13:03;;;;;;;57.30;1.90;;;;;;;;;;5093350;28;20458;-65
2022/07/10 13:15:31;;;;;;;57.63;2.03;;;;;;;;;;5093577;28;20442;-66
2022/07/10 13:17:59;;;;;;;59.17;1.90;;;;;;;;;;5093783;28;20449;-66
2022/07/10 13:20:26;;;;;;;58.57;2.20;;;;;;;;;;5093777;28;21145;-66
2022/07/10 13:22:53;;;;;;;58.30;2.10;;;;;;;;;;5093687;28;20482;-66
2022/07/10 13:25:20;;;;;;;58.00;2.00;;;;;;;;;;5093772;28;20453;-65
2022/07/10 13:27:48;;;;;;;58.17;1.90;;;;;;;;;;5091967;28;20533;-66
2022/07/10 13:30:15;;;;;;;57.17;1.80;;;;;;;;;;5094005;28;20451;-66
2022/07/10 13:32:43;;;;;;;59.63;1.97;;;;;;;;;;5092970;28;20981;-65
2022/07/10 13:35:11;;;;;;;57.37;1.87;;;;;;;;;;5093272;28;20482;-66
2022/07/10 13:37:38;;;;;;;57.20;1.80;;;;;;;;;;5093067;28;20482;-65
2022/07/10 13:40:05;;;;;;;58.27;2.00;;;;;;;;;;5093365;28;20450;-65
2022/07/10 13:42:33;;;;;;;57.43;1.83;;;;;;;;;;5090734;28;20482;-66
2022/07/10 13:45:00;;;;;;;57.50;2.20;;;;;;;;;;5092795;28;20558;-66
2022/07/10 13:47:27;;;;;;;57.03;2.00;;;;;;;;;;5090830;28;20487;-65
2022/07/10 13:49:56;;;;;;;57.33;2.03;;;;;;;;;;5093137;28;20449;-66
2022/07/10 13:52:23;;;;;;;57.13;1.70;;;;;;;;;;5092729;28;20558;-66
2022/07/10 13:54:50;;;;;;;58.27;2.10;;;;;;;;;;5093147;28;20474;-66
2022/07/10 13:57:18;;;;;;;57.27;2.00;;;;;;;;;;5092501;28;20455;-65
2022/07/10 13:59:45;;;;;;;57.10;1.80;;;;;;;;;;5093144;28;20446;-66
2022/07/10 14:02:13;;;;;;;57.57;1.77;;;;;;;;;;5089869;28;20485;-66
2022/07/10 14:04:40;;;;;;;57.77;2.00;;;;;;;;;;5092617;28;20477;-67
2022/07/10 14:07:09;;;;;;;58.27;2.10;;;;;;;;;;5092591;28;20461;-66
2022/07/10 14:09:36;;;;;;;57.00;1.83;;;;;;;;;;5092687;28;20450;-66
2022/07/10 14:12:03;;;;;;;57.30;1.90;;;;;;;;;;5092568;28;20435;-67
2022/07/10 14:14:30;;;;;;;57.30;1.93;;;;;;;;;;5092148;28;20477;-66
2022/07/10 14:16:57;;;;;;;57.27;1.90;;;;;;;;;;5092237;28;20508;-65
2022/07/10 14:19:24;;;;;;;56.87;1.90;;;;;;;;;;5092252;28;20452;-66
2022/07/10 14:21:52;;;;;;;57.50;2.00;;;;;;;;;;5092497;28;20981;-65
2022/07/10 14:24:20;;;;;;;58.30;2.03;;;;;;;;;;5092152;28;20471;-67
2022/07/10 14:26:47;;;;;;;58.43;2.40;;;;;;;;;;5092490;28;20453;-66
2022/07/10 14:29:14;;;;;;;57.10;2.00;;;;;;;;;;5092385;28;20446;-66
2022/07/10 14:31:41;;;;;;;57.33;1.93;;;;;;;;;;5092380;28;20449;-66
2022/07/10 14:34:09;;;;;;;57.80;2.00;;;;;;;;;;5089742;28;20588;-66
2022/07/10 14:36:36;;;;;;;57.07;1.97;;;;;;;;;;5092246;28;20461;-65
2022/07/10 14:39:03;;;;;;;57.50;2.10;;;;;;;;;;5091726;28;20533;-66
2022/07/10 14:41:31;;;;;;;57.60;2.00;;;;;;;;;;5092373;28;20804;-66
2022/07/10 14:43:58;;;;;;;58.57;2.20;;;;;;;;;;5091753;28;20490;-65
2022/07/10 14:46:26;;;;;;;57.60;2.07;;;;;;;;;;5092155;28;20449;-66